createdAt,value
2023-04-26T00:00:24.129Z,2.90
2023-04-26T00:02:50.568Z,2.60
2023-04-26T00:05:17.076Z,2.45
2023-04-26T00:07:43.478Z,2.90
2023-04-26T00:10:10.406Z,2.90
2023-04-26T00:12:37.406Z,3.10
2023-04-26T00:15:04.698Z,2.92
2023-04-26T00:17:31.134Z,2.42
2023-04-26T00:19:57.633Z,3.38
2023-04-26T00:22:24.901Z,3.00
2023-04-26T00:24:51.659Z,2.63
2023-04-26T00:27:18.075Z,2.90
2023-04-26T00:29:44.432Z,2.75
2023-04-26T00:32:10.985Z,2.70
2023-04-26T00:34:38.154Z,3.47
2023-04-26T00:37:05.628Z,2.70
2023-04-26T00:39:32.024Z,3.03
2023-04-26T00:41:58.550Z,3.00
2023-04-26T00:44:25.104Z,2.80
2023-04-26T00:46:53.206Z,2.60
2023-04-26T00:49:22.931Z,2.30
2023-04-26T00:51:51.567Z,2.78
2023-04-26T00:54:19.907Z,2.47
2023-04-26T00:56:46.337Z,2.50
2023-04-26T00:59:12.847Z,2.45
2023-04-26T01:01:39.438Z,2.45
2023-04-26T01:04:06.167Z,2.42
2023-04-26T01:06:36.231Z,2.35
2023-04-26T01:09:04.933Z,2.38
2023-04-26T01:11:32.362Z,2.33
2023-04-26T01:13:58.999Z,2.17
2023-04-26T01:16:27.188Z,2.17
2023-04-26T01:18:54.574Z,2.17
2023-04-26T01:21:22.469Z,2.15
2023-04-26T01:23:49.808Z,2.10
2023-04-26T01:26:16.165Z,1.95
2023-04-26T01:28:42.490Z,2.08
2023-04-26T01:31:09.102Z,2.38
2023-04-26T01:33:35.595Z,2.10
2023-04-26T01:36:02.007Z,2.15
2023-04-26T01:38:28.404Z,2.40
2023-04-26T01:41:00.126Z,2.30
2023-04-26T01:43:26.566Z,2.90
2023-04-26T01:45:53.030Z,1.90
2023-04-26T01:48:19.527Z,2.00
2023-04-26T01:50:45.930Z,1.83
2023-04-26T01:53:12.437Z,1.90
2023-04-26T01:55:38.900Z,1.80
2023-04-26T01:58:05.389Z,1.70
2023-04-26T02:00:32.316Z,1.92
2023-04-26T02:02:58.902Z,1.85
2023-04-26T02:05:25.507Z,2.13
2023-04-26T02:07:51.991Z,1.75
2023-04-26T02:10:18.431Z,2.00
2023-04-26T02:12:44.846Z,1.70
2023-04-26T02:15:11.637Z,1.88
2023-04-26T02:17:38.622Z,1.70
2023-04-26T02:20:05.543Z,1.73
2023-04-26T02:22:31.960Z,1.90
2023-04-26T02:24:58.307Z,1.90
2023-04-26T02:27:24.748Z,2.40
2023-04-26T02:29:51.194Z,1.73
2023-04-26T02:32:17.620Z,2.03
2023-04-26T02:34:44.572Z,1.80
2023-04-26T02:37:11.049Z,1.77
2023-04-26T02:39:37.404Z,1.88
2023-04-26T02:42:04.092Z,1.95
2023-04-26T02:44:30.582Z,1.98
2023-04-26T02:46:57.766Z,1.95
2023-04-26T02:49:24.224Z,1.63
2023-04-26T02:51:50.631Z,1.85
2023-04-26T02:54:16.997Z,2.35
2023-04-26T02:56:43.393Z,2.20
2023-04-26T02:59:10.032Z,1.83
2023-04-26T03:01:36.584Z,2.20
2023-04-26T03:04:03.211Z,2.20
2023-04-26T03:06:29.654Z,1.88
2023-04-26T03:08:56.579Z,2.05
2023-04-26T03:11:23.029Z,2.25
2023-04-26T03:13:49.478Z,1.85
2023-04-26T03:16:18.841Z,1.70
2023-04-26T03:18:45.319Z,2.20
2023-04-26T03:21:11.790Z,2.35
2023-04-26T03:23:38.317Z,2.08
2023-04-26T03:26:04.913Z,2.00
2023-04-26T03:28:31.329Z,2.20
2023-04-26T03:30:57.748Z,1.95
2023-04-26T03:33:24.322Z,2.22
2023-04-26T03:35:51.012Z,2.30
2023-04-26T03:38:17.582Z,1.90
2023-04-26T03:40:44.015Z,1.80
2023-04-26T03:43:10.403Z,2.47
2023-04-26T03:45:36.792Z,2.40
2023-04-26T03:48:03.264Z,2.03
2023-04-26T03:50:29.784Z,2.00
2023-04-26T03:52:56.180Z,2.55
2023-04-26T03:55:22.549Z,2.50
2023-04-26T03:57:49.025Z,2.47
2023-04-26T04:00:15.568Z,2.00
2023-04-26T04:02:42.816Z,2.47
2023-04-26T04:05:09.622Z,2.53
2023-04-26T04:07:36.083Z,2.50
2023-04-26T04:10:02.518Z,2.58
2023-04-26T04:12:28.982Z,2.22
2023-04-26T04:14:55.396Z,2.50
2023-04-26T04:17:21.810Z,2.40
2023-04-26T04:19:48.231Z,2.33
2023-04-26T04:22:14.624Z,3.10
2023-04-26T04:24:40.989Z,2.33
2023-04-26T04:27:07.390Z,2.78
2023-04-26T04:29:33.719Z,2.72
2023-04-26T04:32:00.086Z,2.83
2023-04-26T04:34:26.542Z,2.55
2023-04-26T04:36:52.935Z,2.78
2023-04-26T04:39:19.400Z,3.08
2023-04-26T04:41:45.794Z,2.90
2023-04-26T04:44:12.339Z,3.00
2023-04-26T04:46:38.880Z,2.78
2023-04-26T04:49:05.674Z,3.40
2023-04-26T04:51:32.045Z,3.28
2023-04-26T04:53:58.431Z,3.10
2023-04-26T04:56:24.865Z,3.15
2023-04-26T04:58:51.389Z,3.20
2023-04-26T05:01:17.981Z,2.97
2023-04-26T05:03:44.479Z,2.78
2023-04-26T05:06:11.006Z,3.28
2023-04-26T05:08:37.403Z,3.40
2023-04-26T05:11:04.305Z,3.38
2023-04-26T05:13:30.746Z,3.30
2023-04-26T05:15:57.140Z,3.22
2023-04-26T05:18:23.518Z,3.05
2023-04-26T05:20:49.825Z,3.22
2023-04-26T05:23:16.184Z,3.17
2023-04-26T05:25:43.025Z,3.85
2023-04-26T05:28:09.351Z,3.25
2023-04-26T05:30:35.668Z,3.70
2023-04-26T05:33:02.066Z,3.50
2023-04-26T05:35:28.458Z,3.80
2023-04-26T05:37:54.775Z,4.28
2023-04-26T05:40:21.222Z,3.38
2023-04-26T05:42:47.694Z,3.30
2023-04-26T05:45:14.155Z,3.55
2023-04-26T05:47:40.478Z,3.15
2023-04-26T05:50:07.623Z,2.97
2023-04-26T05:52:34.352Z,2.90
2023-04-26T05:55:00.795Z,3.33
2023-04-26T05:57:27.193Z,2.67
2023-04-26T05:59:53.738Z,2.92
2023-04-26T06:02:20.196Z,2.58
2023-04-26T06:04:46.909Z,2.70
2023-04-26T06:07:13.353Z,2.63
2023-04-26T06:09:39.715Z,2.67
2023-04-26T06:12:06.108Z,2.58
2023-04-26T06:14:32.534Z,2.55
2023-04-26T06:16:58.976Z,2.58
2023-04-26T06:19:25.452Z,3.05
2023-04-26T06:21:51.853Z,2.85
2023-04-26T06:24:18.209Z,2.63
2023-04-26T06:26:44.568Z,2.50
2023-04-26T06:29:10.927Z,2.92
2023-04-26T06:31:37.581Z,2.63
2023-04-26T06:34:04.342Z,2.45
2023-04-26T06:36:33.323Z,2.60
2023-04-26T06:38:59.703Z,2.40
2023-04-26T06:41:26.204Z,2.70
2023-04-26T06:43:53.140Z,2.90
2023-04-26T06:46:19.785Z,2.75
2023-04-26T06:48:46.314Z,2.33
2023-04-26T06:51:12.684Z,2.80
2023-04-26T06:53:39.138Z,2.90
2023-04-26T06:56:05.780Z,2.50
2023-04-26T06:58:32.200Z,2.38
2023-04-26T07:01:01.566Z,2.33
2023-04-26T07:03:28.061Z,2.65
2023-04-26T07:05:55.782Z,2.40
2023-04-26T07:08:22.224Z,2.20
2023-04-26T07:10:48.597Z,2.17
2023-04-26T07:13:15.223Z,2.03
2023-04-26T07:15:41.755Z,2.03
2023-04-26T07:18:08.398Z,1.83
2023-04-26T07:20:34.894Z,1.70
2023-04-26T07:23:01.309Z,1.70
2023-04-26T07:25:27.785Z,1.90
2023-04-26T07:27:54.187Z,1.67
2023-04-26T07:30:20.704Z,2.08
2023-04-26T07:32:47.372Z,1.75
2023-04-26T07:35:13.943Z,1.80
2023-04-26T07:37:40.327Z,1.58
2023-04-26T07:40:07.314Z,1.70
2023-04-26T07:42:33.814Z,1.55
2023-04-26T07:45:00.257Z,1.50
2023-04-26T07:47:26.869Z,1.67
2023-04-26T07:49:53.684Z,2.08
2023-04-26T07:52:20.077Z,2.10
2023-04-26T07:54:46.518Z,2.22
2023-04-26T07:57:12.895Z,1.95
2023-04-26T07:59:39.322Z,2.05
2023-04-26T08:02:06.229Z,2.70
2023-04-26T08:04:34.148Z,1.80
2023-04-26T08:07:01.377Z,2.00
2023-04-26T08:09:30.906Z,2.03
2023-04-26T08:11:57.794Z,1.95
2023-04-26T08:14:24.176Z,1.90
2023-04-26T08:16:51.134Z,1.92
2023-04-26T08:19:17.526Z,1.70
2023-04-26T08:21:44.086Z,2.03
2023-04-26T08:24:10.570Z,2.00
2023-04-26T08:26:36.914Z,1.70
2023-04-26T08:29:03.374Z,1.70
2023-04-26T08:31:29.738Z,1.80
2023-04-26T08:33:56.119Z,1.70
2023-04-26T08:36:22.488Z,1.58
2023-04-26T08:38:49.002Z,1.50
2023-04-26T08:41:22.106Z,1.55
2023-04-26T08:43:49.351Z,1.55
2023-04-26T08:46:19.340Z,1.50
2023-04-26T08:48:51.630Z,1.13
2023-04-26T08:51:19.046Z,1.20
2023-04-26T08:53:46.159Z,1.08
2023-04-26T08:56:13.261Z,1.38
2023-04-26T08:58:39.684Z,1.45
2023-04-26T09:01:06.934Z,1.35
2023-04-26T09:03:33.757Z,1.70
2023-04-26T09:06:03.138Z,0.90
2023-04-26T09:08:31.261Z,1.05
2023-04-26T09:10:57.908Z,1.27
2023-04-26T09:13:28.556Z,1.30
2023-04-26T09:15:54.998Z,1.50
2023-04-26T09:18:23.818Z,1.20
2023-04-26T09:21:04.737Z,1.00
2023-04-26T09:23:31.824Z,1.20
2023-04-26T09:26:15.786Z,1.30
2023-04-26T09:28:42.239Z,1.92
2023-04-26T09:31:09.155Z,1.48
2023-04-26T09:33:36.623Z,1.58
2023-04-26T09:36:12.714Z,1.42
2023-04-26T09:38:42.976Z,1.48
2023-04-26T09:41:09.508Z,1.73
2023-04-26T09:43:37.587Z,1.60
2023-04-26T09:46:04.094Z,1.95
2023-04-26T09:48:32.680Z,2.33
2023-04-26T09:51:10.211Z,2.00
2023-04-26T09:53:39.066Z,1.80
2023-04-26T09:56:15.630Z,2.00
2023-04-26T09:58:48.215Z,1.40
2023-04-26T10:01:16.005Z,1.45
2023-04-26T10:03:43.758Z,1.60
2023-04-26T10:06:12.167Z,1.30
2023-04-26T10:08:38.797Z,1.42
2023-04-26T10:11:06.144Z,1.60
2023-04-26T10:13:32.765Z,1.30
2023-04-26T10:16:00.537Z,1.10
2023-04-26T10:18:26.932Z,1.30
2023-04-26T10:20:56.807Z,1.00
2023-04-26T10:23:24.319Z,1.73
2023-04-26T10:25:52.075Z,1.38
2023-04-26T10:28:38.917Z,1.00
2023-04-26T10:31:05.811Z,1.10
2023-04-26T10:33:32.239Z,1.10
2023-04-26T10:36:07.186Z,1.33
2023-04-26T10:38:35.868Z,1.30
2023-04-26T10:41:34.557Z,1.60
2023-04-26T10:44:37.254Z,1.38
2023-04-26T10:47:06.018Z,1.13
2023-04-26T10:49:44.343Z,1.55
2023-04-26T10:52:18.414Z,1.40
2023-04-26T10:54:58.471Z,1.23
2023-04-26T10:57:51.842Z,1.50
2023-04-26T11:00:31.746Z,1.55
2023-04-26T11:03:03.787Z,1.30
2023-04-26T11:05:34.202Z,1.60
2023-04-26T11:08:27.588Z,1.55
2023-04-26T11:11:12.798Z,1.58
2023-04-26T11:13:43.397Z,1.35
2023-04-26T11:16:15.051Z,1.52
2023-04-26T11:18:45.685Z,1.80
2023-04-26T11:21:13.276Z,1.77
2023-04-26T11:23:40.008Z,1.95
2023-04-26T11:26:08.021Z,1.50
2023-04-26T11:28:36.107Z,1.40
2023-04-26T11:31:06.722Z,1.58
2023-04-26T11:33:33.580Z,1.88
2023-04-26T11:36:00.254Z,1.50
2023-04-26T11:38:28.524Z,1.90
2023-04-26T11:40:58.682Z,1.70
2023-04-26T11:43:39.203Z,1.65
2023-04-26T11:46:07.724Z,1.50
2023-04-26T11:48:36.261Z,2.08
2023-04-26T11:51:04.437Z,1.60
2023-04-26T11:53:40.893Z,1.77
2023-04-26T11:56:17.720Z,1.95
2023-04-26T11:58:48.281Z,1.88
2023-04-26T12:01:28.329Z,2.40
2023-04-26T12:03:56.583Z,1.60
2023-04-26T12:06:41.774Z,2.55
2023-04-26T12:09:08.683Z,1.80
2023-04-26T12:11:35.359Z,2.00
2023-04-26T12:14:02.761Z,1.90
2023-04-26T12:16:29.380Z,2.10
2023-04-26T12:18:56.314Z,1.55
2023-04-26T12:21:23.531Z,1.80
2023-04-26T12:23:50.225Z,2.05
2023-04-26T12:26:16.758Z,2.10
2023-04-26T12:28:43.655Z,3.28
2023-04-26T12:31:10.126Z,3.20
2023-04-26T12:33:36.615Z,2.08
2023-04-26T12:36:10.452Z,1.80
2023-04-26T12:38:37.557Z,2.08
2023-04-26T12:41:04.586Z,2.13
2023-04-26T12:43:31.996Z,2.13
2023-04-26T12:45:58.564Z,1.83
2023-04-26T12:48:24.952Z,1.40
2023-04-26T12:50:54.198Z,2.10
2023-04-26T12:53:20.542Z,1.80
2023-04-26T12:55:47.051Z,1.80
2023-04-26T12:58:13.733Z,1.63
2023-04-26T13:00:41.268Z,1.88
2023-04-26T13:03:08.641Z,1.50
2023-04-26T13:05:35.162Z,1.88
2023-04-26T13:08:01.699Z,1.38
2023-04-26T13:10:28.081Z,1.40
2023-04-26T13:12:54.460Z,1.40
2023-04-26T13:15:20.884Z,1.50
2023-04-26T13:17:47.203Z,1.50
2023-04-26T13:20:13.624Z,1.80
2023-04-26T13:22:40.136Z,1.60
2023-04-26T13:25:06.903Z,1.70
2023-04-26T13:27:33.275Z,1.50
2023-04-26T13:29:59.799Z,1.27
2023-04-26T13:32:26.228Z,1.90
2023-04-26T13:34:52.572Z,1.88
2023-04-26T13:37:18.922Z,1.70
2023-04-26T13:39:45.304Z,2.10
2023-04-26T13:42:11.725Z,1.90
2023-04-26T13:44:38.226Z,2.20
2023-04-26T13:47:04.716Z,1.98
2023-04-26T13:49:31.042Z,1.63
2023-04-26T13:51:57.778Z,2.03
2023-04-26T13:54:24.174Z,1.98
2023-04-26T13:56:50.483Z,1.83
2023-04-26T13:59:16.989Z,1.58
2023-04-26T14:01:44.208Z,1.65
2023-04-26T14:04:10.818Z,1.80
2023-04-26T14:06:37.213Z,1.70
2023-04-26T14:09:04.149Z,1.30
2023-04-26T14:11:30.581Z,1.50
2023-04-26T14:13:57.440Z,1.40
2023-04-26T14:16:25.641Z,1.08
2023-04-26T14:18:52.390Z,1.35
2023-04-26T14:21:19.442Z,1.60
2023-04-26T14:23:45.827Z,1.45
2023-04-26T14:26:12.208Z,2.05
2023-04-26T14:28:38.752Z,1.33
2023-04-26T14:31:05.144Z,1.55
2023-04-26T14:33:31.662Z,1.65
2023-04-26T14:35:57.994Z,1.90
2023-04-26T14:38:24.374Z,1.67
2023-04-26T14:40:50.810Z,1.80
2023-04-26T14:43:17.181Z,1.42
2023-04-26T14:45:44.870Z,1.60
2023-04-26T14:48:11.918Z,1.50
2023-04-26T14:50:38.381Z,1.50
2023-04-26T14:53:04.728Z,1.25
2023-04-26T14:55:31.020Z,1.50
2023-04-26T14:57:57.883Z,1.27
2023-04-26T15:00:24.346Z,1.30
2023-04-26T15:02:50.877Z,1.50
2023-04-26T15:05:17.479Z,1.60
2023-04-26T15:07:43.836Z,1.70
2023-04-26T15:10:10.230Z,1.55
2023-04-26T15:12:36.728Z,1.33
2023-04-26T15:15:04.468Z,1.20
2023-04-26T15:17:34.045Z,1.42
2023-04-26T15:20:03.694Z,1.55
2023-04-26T15:22:30.123Z,1.83
2023-04-26T15:24:56.493Z,1.70
2023-04-26T15:27:22.967Z,1.73
2023-04-26T15:29:49.413Z,1.52
2023-04-26T15:32:15.780Z,1.50
2023-04-26T15:34:42.402Z,1.80
2023-04-26T15:37:09.193Z,1.50
2023-04-26T15:39:35.733Z,1.48
2023-04-26T15:42:02.172Z,1.70
2023-04-26T15:44:28.482Z,1.40
2023-04-26T15:46:54.873Z,1.63
2023-04-26T15:49:23.673Z,1.50
2023-04-26T15:51:49.976Z,1.70
2023-04-26T15:54:16.435Z,1.48
2023-04-26T15:56:44.670Z,2.40
2023-04-26T15:59:11.141Z,1.80
2023-04-26T16:01:37.619Z,2.28
2023-04-26T16:04:04.368Z,1.70
2023-04-26T16:06:31.060Z,1.70
2023-04-26T16:08:57.537Z,1.67
2023-04-26T16:11:24.270Z,1.83
2023-04-26T16:13:50.535Z,2.45
2023-04-26T16:16:17.491Z,1.75
2023-04-26T16:18:43.940Z,1.70
2023-04-26T16:21:10.642Z,1.40
2023-04-26T16:23:37.391Z,1.98
2023-04-26T16:26:03.970Z,1.88
2023-04-26T16:28:30.439Z,2.22
2023-04-26T16:30:56.791Z,1.63
2023-04-26T16:33:23.624Z,1.60
2023-04-26T16:35:54.229Z,1.75
2023-04-26T16:38:23.913Z,1.50
2023-04-26T16:40:58.523Z,1.98
2023-04-26T16:43:25.993Z,1.55
2023-04-26T16:46:03.419Z,1.70
2023-04-26T16:48:31.306Z,1.50
2023-04-26T16:50:57.625Z,1.65
2023-04-26T16:53:24.442Z,1.90
2023-04-26T16:55:51.046Z,1.55
2023-04-26T16:58:17.373Z,2.10
2023-04-26T17:00:44.254Z,1.77
2023-04-26T17:03:10.913Z,1.60
2023-04-26T17:05:45.784Z,1.42
2023-04-26T17:08:12.592Z,1.75
2023-04-26T17:10:39.306Z,1.80
2023-04-26T17:13:06.776Z,1.55
2023-04-26T17:15:34.099Z,1.60
2023-04-26T17:18:01.309Z,1.45
2023-04-26T17:20:28.823Z,1.75
2023-04-26T17:22:55.147Z,1.77
2023-04-26T17:25:21.560Z,1.70
2023-04-26T17:27:48.007Z,1.48
2023-04-26T17:30:14.507Z,1.40
2023-04-26T17:32:40.976Z,1.40
2023-04-26T17:35:07.677Z,1.42
2023-04-26T17:37:34.281Z,1.40
2023-04-26T17:40:00.893Z,2.08
2023-04-26T17:42:27.274Z,2.05
2023-04-26T17:44:53.931Z,1.98
2023-04-26T17:47:20.297Z,1.80
2023-04-26T17:49:46.676Z,1.58
2023-04-26T17:52:13.025Z,1.75
2023-04-26T17:54:39.366Z,1.58
2023-04-26T17:57:05.711Z,1.73
2023-04-26T17:59:32.027Z,1.73
2023-04-26T18:01:58.426Z,1.70
2023-04-26T18:04:25.143Z,1.70
2023-04-26T18:06:51.597Z,1.60
2023-04-26T18:09:17.946Z,1.40
2023-04-26T18:11:44.396Z,1.70
2023-04-26T18:14:10.764Z,1.80
2023-04-26T18:16:37.112Z,1.52
2023-04-26T18:19:03.534Z,2.03
2023-04-26T18:21:29.957Z,1.70
2023-04-26T18:23:56.358Z,1.70
2023-04-26T18:26:22.877Z,1.70
2023-04-26T18:28:52.339Z,1.80
2023-04-26T18:31:18.830Z,1.80
2023-04-26T18:33:45.190Z,1.50
2023-04-26T18:36:11.615Z,1.52
2023-04-26T18:38:37.985Z,1.95
2023-04-26T18:41:04.444Z,1.73
2023-04-26T18:43:30.885Z,1.50
2023-04-26T18:45:57.413Z,1.52
2023-04-26T18:48:23.832Z,1.58
2023-04-26T18:50:54.188Z,1.75
2023-04-26T18:53:21.074Z,1.40
2023-04-26T18:55:47.977Z,2.25
2023-04-26T18:58:14.384Z,1.70
2023-04-26T19:00:40.795Z,1.70
2023-04-26T19:03:07.416Z,2.22
2023-04-26T19:05:34.912Z,1.70
2023-04-26T19:08:01.308Z,1.83
2023-04-26T19:10:27.761Z,1.55
2023-04-26T19:12:54.206Z,1.70
2023-04-26T19:15:21.001Z,1.75
2023-04-26T19:17:47.450Z,2.08
2023-04-26T19:20:13.850Z,1.75
2023-04-26T19:22:40.320Z,2.13
2023-04-26T19:25:07.003Z,1.80
2023-04-26T19:27:34.221Z,1.52
2023-04-26T19:30:00.597Z,2.00
2023-04-26T19:32:27.168Z,1.98
2023-04-26T19:34:53.605Z,1.75
2023-04-26T19:37:19.989Z,1.90
2023-04-26T19:39:46.387Z,2.00
2023-04-26T19:42:12.864Z,2.28
2023-04-26T19:44:39.271Z,2.30
2023-04-26T19:47:05.672Z,2.30
2023-04-26T19:49:32.670Z,1.98
2023-04-26T19:52:00.950Z,2.30
2023-04-26T19:54:27.480Z,2.33
2023-04-26T19:56:54.080Z,2.20
2023-04-26T19:59:20.554Z,2.53
2023-04-26T20:01:46.992Z,2.05
2023-04-26T20:04:14.927Z,2.20
2023-04-26T20:06:41.530Z,2.22
2023-04-26T20:09:08.158Z,2.30
2023-04-26T20:11:34.867Z,1.73
2023-04-26T20:14:01.235Z,2.80
2023-04-26T20:16:27.627Z,2.03
2023-04-26T20:18:53.948Z,2.38
2023-04-26T20:21:20.343Z,2.63
2023-04-26T20:23:46.781Z,2.70
2023-04-26T20:26:13.138Z,2.60
2023-04-26T20:28:40.023Z,3.35
2023-04-26T20:31:06.578Z,3.33
2023-04-26T20:33:33.100Z,3.20
2023-04-26T20:35:59.470Z,3.05
2023-04-26T20:38:25.921Z,2.80
2023-04-26T20:40:52.224Z,2.80
2023-04-26T20:43:18.580Z,3.38
2023-04-26T20:45:45.050Z,2.90
2023-04-26T20:48:11.509Z,3.40
2023-04-26T20:50:38.001Z,3.13
2023-04-26T20:53:04.396Z,3.28
2023-04-26T20:55:30.769Z,3.63
2023-04-26T20:57:57.504Z,3.72
2023-04-26T21:00:24.040Z,3.20
2023-04-26T21:02:50.603Z,3.40
2023-04-26T21:05:17.522Z,3.78
2023-04-26T21:07:43.810Z,3.70
2023-04-26T21:10:10.435Z,3.50
2023-04-26T21:12:36.889Z,3.08
2023-04-26T21:15:03.534Z,3.30
2023-04-26T21:17:29.935Z,3.05
2023-04-26T21:19:56.279Z,2.80
2023-04-26T21:22:22.706Z,3.75
2023-04-26T21:24:50.838Z,3.35
2023-04-26T21:27:17.155Z,2.92
2023-04-26T21:29:43.539Z,3.38
2023-04-26T21:32:09.906Z,3.42
2023-04-26T21:34:36.347Z,2.90
2023-04-26T21:37:02.764Z,3.50
2023-04-26T21:39:29.225Z,3.83
2023-04-26T21:41:55.607Z,4.63
2023-04-26T21:44:22.143Z,3.42
2023-04-26T21:46:48.513Z,4.53
2023-04-26T21:49:14.851Z,4.40
2023-04-26T21:51:41.347Z,4.30
2023-04-26T21:54:07.709Z,4.57
2023-04-26T21:56:34.073Z,4.10
2023-04-26T21:59:00.442Z,4.90
2023-04-26T22:01:27.032Z,4.57
2023-04-26T22:03:53.470Z,4.68
2023-04-26T22:06:19.877Z,4.10
2023-04-26T22:08:46.260Z,4.28
2023-04-26T22:11:12.651Z,4.50
2023-04-26T22:13:39.083Z,4.22
2023-04-26T22:16:05.917Z,4.57
2023-04-26T22:18:32.500Z,4.40
2023-04-26T22:20:58.957Z,4.20
2023-04-26T22:23:25.408Z,4.18
2023-04-26T22:25:51.709Z,4.50
2023-04-26T22:28:18.164Z,4.43
2023-04-26T22:30:44.545Z,4.53
2023-04-26T22:33:10.971Z,4.57
2023-04-26T22:35:37.800Z,3.78
2023-04-26T22:38:04.203Z,3.55
2023-04-26T22:40:30.542Z,4.30
2023-04-26T22:42:57.913Z,4.40
2023-04-26T22:45:24.552Z,4.80
2023-04-26T22:47:51.235Z,4.75
2023-04-26T22:50:17.800Z,5.07
2023-04-26T22:52:44.174Z,5.65
2023-04-26T22:55:20.304Z,6.00
2023-04-26T22:57:47.008Z,5.93
2023-04-26T23:00:14.145Z,5.70
2023-04-26T23:02:40.869Z,5.28
2023-04-26T23:05:18.554Z,5.35
2023-04-26T23:07:45.228Z,5.70
2023-04-26T23:10:11.992Z,4.45
2023-04-26T23:12:38.324Z,4.05
2023-04-26T23:15:05.218Z,4.90
2023-04-26T23:17:31.837Z,4.53
2023-04-26T23:19:58.151Z,4.55
2023-04-26T23:22:24.482Z,5.95
2023-04-26T23:24:50.792Z,5.18
2023-04-26T23:27:17.189Z,5.05
2023-04-26T23:29:43.526Z,5.68
2023-04-26T23:32:09.955Z,5.15
2023-04-26T23:34:36.363Z,5.32
2023-04-26T23:37:07.906Z,4.57
2023-04-26T23:39:35.170Z,5.03
2023-04-26T23:42:01.638Z,5.05
2023-04-26T23:44:28.045Z,5.00
2023-04-26T23:46:54.483Z,5.00
2023-04-26T23:49:20.862Z,5.03
2023-04-26T23:51:47.248Z,4.88
2023-04-26T23:54:13.622Z,5.13
2023-04-26T23:56:39.971Z,4.32
2023-04-26T23:59:06.425Z,4.30
